Main page
METAR-TAF:

METAR-TAF

Airports :

Madrid-Cuatro Vientos, Spain

Cuatro Vientos Airport

latitude: 40-23N, longitude: 003-47W, elevation: 690 m

Current weather observation

The report was made 39 minutes ago, at 18:30 UTC
Wind 4 kt from the East/Northeast, varying between North and East
Temperature 23°C
Humidity 41%
Pressure 1017 hPa
Visibility 10 km or more
no clouds below 1500 m and no cumulonimbus

METAR: LEVS 231830Z 06004KT 010V100 CAVOK 23/09 Q1017

Time: 21:09 (19:09 UTC)

Forecast

The report was made 2 hours and 9 minutes ago, at 17:00 UTC
Forecast valid from 23 at 18 UTC to 24 at 03 UTC
Wind 8 kt from the East/Northeast
Visibility 10 km or more
no clouds below 1500 m and no cumulonimbus
Probability 30% :
Temporary
from 23 at 18 UTC to 23 at 19 UTC
Few clouds at a height of 4500 ft, Towering cumulus.

TAF: LEVS 231700Z 2318/2403 06008KT CAVOK PROB30 TEMPO 2318/2319 FEW045TCU

Weather observations and forecasts of more than 4000 airports (METAR and TAF reports).

The available stations are represented by yellow and red dots on the map.

Hover mouse over dot to see the name of the station.

Then click to see weather observations and forecasts.

To change the map : click on the green buttons with a black cross to zoom in, on the green button with a dash to zoom out, or on the green arrows for adjacent maps.


METAR-TAF: